createdAt,value
2019-02-17T00:00:43.654Z,6.05
2019-02-17T00:01:47.184Z,6.04
2019-02-17T00:02:50.696Z,6.04
2019-02-17T00:03:54.272Z,6.09
2019-02-17T00:04:57.716Z,6.09
2019-02-17T00:06:01.222Z,6.12
2019-02-17T00:07:04.815Z,6.08
2019-02-17T00:08:08.285Z,6.04
2019-02-17T00:09:11.782Z,6.03
2019-02-17T00:10:15.283Z,6.07
2019-02-17T00:11:18.718Z,6.10
2019-02-17T00:12:22.172Z,6.07
2019-02-17T00:13:25.634Z,6.07
2019-02-17T00:14:29.063Z,6.07
2019-02-17T00:15:32.492Z,6.02
2019-02-17T00:16:35.943Z,6.00
2019-02-17T00:17:39.371Z,6.01
2019-02-17T00:18:42.820Z,6.03
2019-02-17T00:19:46.262Z,5.98
2019-02-17T00:20:49.771Z,6.01
2019-02-17T00:21:53.200Z,5.98
2019-02-17T00:22:56.629Z,5.96
2019-02-17T00:24:00.153Z,5.96
2019-02-17T00:25:04.091Z,5.93
2019-02-17T00:26:07.523Z,5.85
2019-02-17T00:27:11.053Z,5.77
2019-02-17T00:28:14.584Z,5.76
2019-02-17T00:29:18.022Z,5.76
2019-02-17T00:30:21.459Z,5.77
2019-02-17T00:31:24.893Z,5.74
2019-02-17T00:32:28.329Z,5.72
2019-02-17T00:33:31.768Z,5.72
2019-02-17T00:34:35.230Z,5.72
2019-02-17T00:35:38.686Z,5.74
2019-02-17T00:36:42.107Z,5.79
2019-02-17T00:37:45.545Z,5.86
2019-02-17T00:38:48.977Z,5.88
2019-02-17T00:39:52.428Z,5.86
2019-02-17T00:40:55.858Z,5.76
2019-02-17T00:41:59.366Z,5.72
2019-02-17T00:43:03.030Z,5.67
2019-02-17T00:44:06.474Z,5.61
2019-02-17T00:45:10.183Z,5.53
2019-02-17T00:46:13.616Z,5.48
2019-02-17T00:47:17.068Z,5.44
2019-02-17T00:48:20.520Z,5.44
2019-02-17T00:49:24.000Z,5.43
2019-02-17T00:50:27.457Z,5.43
2019-02-17T00:51:30.898Z,5.39
2019-02-17T00:52:34.343Z,5.36
2019-02-17T00:53:37.862Z,5.37
2019-02-17T00:54:41.309Z,5.38
2019-02-17T00:55:44.775Z,5.38
2019-02-17T00:56:48.225Z,5.40
2019-02-17T00:57:51.676Z,5.44
2019-02-17T00:58:55.091Z,5.50
2019-02-17T00:59:58.519Z,5.55
2019-02-17T01:01:01.990Z,5.58
2019-02-17T01:02:05.493Z,5.53
2019-02-17T01:03:08.927Z,5.51
2019-02-17T01:04:12.438Z,5.47
2019-02-17T01:05:15.953Z,5.40
2019-02-17T01:06:19.431Z,5.36
2019-02-17T01:07:23.007Z,5.34
2019-02-17T01:08:26.445Z,5.33
2019-02-17T01:09:30.280Z,5.33
2019-02-17T01:10:33.820Z,5.33
2019-02-17T01:11:37.375Z,5.33
2019-02-17T01:12:40.848Z,5.30
2019-02-17T01:13:44.351Z,5.30
2019-02-17T01:14:47.787Z,5.28
2019-02-17T01:15:51.308Z,5.21
2019-02-17T01:16:54.763Z,5.19
2019-02-17T01:17:58.291Z,5.23
2019-02-17T01:19:01.724Z,5.26
2019-02-17T01:20:07.625Z,5.21
2019-02-17T01:21:11.057Z,5.20
2019-02-17T01:22:14.517Z,5.16
2019-02-17T01:23:17.971Z,5.17
2019-02-17T01:24:21.567Z,5.15
2019-02-17T01:25:25.083Z,5.17
2019-02-17T01:26:28.578Z,5.13
2019-02-17T01:27:32.029Z,5.14
2019-02-17T01:28:35.467Z,5.11
2019-02-17T01:29:38.904Z,5.12
2019-02-17T01:30:42.335Z,5.09
2019-02-17T01:31:45.780Z,5.00
2019-02-17T01:32:49.294Z,4.96
2019-02-17T01:33:52.757Z,5.01
2019-02-17T01:34:56.209Z,5.00
2019-02-17T01:35:59.642Z,4.97
2019-02-17T01:37:03.170Z,4.95
2019-02-17T01:38:06.637Z,4.84
2019-02-17T01:39:10.094Z,4.84
2019-02-17T01:40:13.597Z,4.84
2019-02-17T01:41:17.140Z,4.85
2019-02-17T01:42:20.843Z,4.89
2019-02-17T01:43:24.311Z,4.81
2019-02-17T01:44:27.862Z,4.83
2019-02-17T01:45:31.456Z,4.83
2019-02-17T01:46:34.896Z,4.85
2019-02-17T01:47:38.411Z,4.89
2019-02-17T01:48:41.863Z,4.90
2019-02-17T01:49:45.322Z,4.87
2019-02-17T01:50:48.769Z,4.83
2019-02-17T01:51:52.286Z,4.87
2019-02-17T01:52:55.736Z,4.82
2019-02-17T01:53:59.200Z,4.79
2019-02-17T01:55:02.641Z,4.77
2019-02-17T01:56:06.239Z,4.76
2019-02-17T01:57:09.739Z,4.77
2019-02-17T01:58:13.350Z,4.76
2019-02-17T01:59:16.892Z,4.73
2019-02-17T02:00:20.451Z,4.68
2019-02-17T02:01:23.954Z,4.64
2019-02-17T02:02:27.456Z,4.63
2019-02-17T02:03:30.895Z,4.61
2019-02-17T02:04:34.363Z,4.62
2019-02-17T02:05:37.937Z,4.63
2019-02-17T02:06:41.503Z,4.65
2019-02-17T02:07:44.952Z,4.64
2019-02-17T02:08:48.382Z,4.64
2019-02-17T02:09:51.830Z,4.61
2019-02-17T02:10:55.415Z,4.51
2019-02-17T02:11:58.934Z,4.50
2019-02-17T02:13:02.442Z,4.48
2019-02-17T02:14:06.536Z,4.49
2019-02-17T02:15:11.259Z,4.50
2019-02-17T02:16:14.739Z,4.53
2019-02-17T02:17:18.267Z,4.50
2019-02-17T02:18:21.769Z,4.49
2019-02-17T02:19:25.206Z,4.47
2019-02-17T02:20:29.345Z,4.50
2019-02-17T02:21:32.780Z,4.49
2019-02-17T02:22:36.212Z,4.42
2019-02-17T02:23:39.643Z,4.43
2019-02-17T02:24:43.075Z,4.37
2019-02-17T02:25:46.537Z,4.41
2019-02-17T02:26:49.978Z,4.46
2019-02-17T02:27:53.418Z,4.50
2019-02-17T02:28:56.846Z,4.54
2019-02-17T02:30:00.340Z,4.48
2019-02-17T02:31:03.838Z,4.45
2019-02-17T02:32:07.303Z,4.45
2019-02-17T02:33:10.801Z,4.35
2019-02-17T02:34:14.242Z,4.31
2019-02-17T02:35:17.690Z,3.93
2019-02-17T02:36:21.126Z,4.27
2019-02-17T02:37:24.644Z,4.27
2019-02-17T02:38:28.140Z,4.29
2019-02-17T02:39:31.711Z,4.19
2019-02-17T02:40:35.144Z,4.13
2019-02-17T02:41:38.606Z,4.13
2019-02-17T02:42:42.050Z,4.12
2019-02-17T02:43:45.480Z,4.17
2019-02-17T02:44:48.914Z,4.22
2019-02-17T02:45:52.419Z,4.16
2019-02-17T02:46:55.867Z,4.11
2019-02-17T02:47:59.317Z,4.08
2019-02-17T02:49:02.758Z,4.07
2019-02-17T02:50:09.339Z,4.02
2019-02-17T02:51:12.827Z,4.06
2019-02-17T02:52:16.294Z,4.08
2019-02-17T02:53:19.731Z,4.07
2019-02-17T02:54:23.161Z,4.02
2019-02-17T02:55:26.616Z,3.99
2019-02-17T02:56:30.043Z,3.94
2019-02-17T02:57:33.500Z,3.92
2019-02-17T02:58:36.934Z,3.96
2019-02-17T02:59:41.927Z,4.03
2019-02-17T03:00:45.610Z,4.05
2019-02-17T03:01:49.045Z,4.01
2019-02-17T03:02:52.521Z,4.02
2019-02-17T03:03:55.986Z,3.91
2019-02-17T03:04:59.468Z,3.86
2019-02-17T03:06:07.560Z,3.84
2019-02-17T03:07:11.077Z,3.84
2019-02-17T03:08:14.538Z,3.84
2019-02-17T03:09:18.131Z,3.87
2019-02-17T03:10:21.638Z,3.90
2019-02-17T03:11:25.069Z,3.95
2019-02-17T03:12:28.577Z,3.93
2019-02-17T03:13:32.106Z,3.93
2019-02-17T03:14:35.546Z,3.94
2019-02-17T03:15:39.052Z,3.95
2019-02-17T03:16:42.497Z,3.93
2019-02-17T03:17:45.965Z,3.95
2019-02-17T03:18:49.394Z,3.98
2019-02-17T03:19:52.832Z,3.94
2019-02-17T03:20:56.277Z,3.86
2019-02-17T03:21:59.710Z,3.82
2019-02-17T03:23:03.156Z,3.83
2019-02-17T03:24:06.594Z,3.82
2019-02-17T03:25:10.154Z,3.85
2019-02-17T03:26:13.592Z,3.84
2019-02-17T03:27:17.014Z,3.75
2019-02-17T03:28:20.479Z,3.78
2019-02-17T03:29:23.934Z,3.77
2019-02-17T03:30:27.379Z,3.77
2019-02-17T03:31:30.809Z,3.78
2019-02-17T03:32:34.245Z,3.76
2019-02-17T03:33:37.722Z,3.76
2019-02-17T03:34:41.156Z,3.69
2019-02-17T03:35:44.674Z,3.63
2019-02-17T03:36:48.167Z,3.60
2019-02-17T03:37:51.634Z,3.60
2019-02-17T03:38:55.067Z,3.56
2019-02-17T03:39:58.526Z,3.58
2019-02-17T03:41:01.967Z,3.55
2019-02-17T03:42:05.635Z,3.42
2019-02-17T03:43:09.145Z,3.33
2019-02-17T03:44:12.608Z,3.23
2019-02-17T03:45:16.035Z,3.22
2019-02-17T03:46:19.469Z,3.29
2019-02-17T03:47:22.929Z,3.33
2019-02-17T03:48:26.440Z,3.30
2019-02-17T03:49:29.961Z,3.27
2019-02-17T03:50:33.551Z,3.18
2019-02-17T03:51:37.055Z,3.12
2019-02-17T03:52:40.481Z,3.18
2019-02-17T03:53:43.933Z,3.17
2019-02-17T03:54:47.373Z,3.10
2019-02-17T03:55:50.806Z,3.06
2019-02-17T03:56:54.309Z,3.08
2019-02-17T03:57:57.755Z,3.09
2019-02-17T03:59:01.177Z,3.10
2019-02-17T04:00:16.597Z,3.15
2019-02-17T04:01:11.420Z,3.13
2019-02-17T04:02:14.918Z,3.15
2019-02-17T04:03:18.430Z,3.20
2019-02-17T04:04:21.931Z,3.12
2019-02-17T04:05:25.371Z,3.14
2019-02-17T04:06:28.965Z,3.15
2019-02-17T04:07:32.464Z,3.14
2019-02-17T04:08:35.969Z,3.08
2019-02-17T04:09:39.394Z,3.19
2019-02-17T04:10:42.983Z,3.25
2019-02-17T04:11:46.482Z,3.34
2019-02-17T04:12:49.948Z,3.39
2019-02-17T04:13:53.382Z,3.43
2019-02-17T04:14:56.987Z,3.41
2019-02-17T04:16:00.509Z,3.36
2019-02-17T04:17:04.030Z,3.37
2019-02-17T04:18:07.601Z,3.32
2019-02-17T04:19:11.101Z,3.31
2019-02-17T04:20:14.632Z,3.33
2019-02-17T04:21:18.072Z,3.31
2019-02-17T04:22:21.504Z,3.30
2019-02-17T04:23:31.280Z,3.26
2019-02-17T04:24:30.221Z,3.24
2019-02-17T04:25:33.658Z,3.21
2019-02-17T04:26:37.110Z,3.20
2019-02-17T04:27:40.563Z,3.21
2019-02-17T04:28:44.006Z,3.22
2019-02-17T04:29:47.520Z,3.22
2019-02-17T04:30:50.966Z,3.27
2019-02-17T04:31:54.417Z,3.40
2019-02-17T04:32:57.866Z,3.48
2019-02-17T04:34:01.276Z,3.55
2019-02-17T04:35:05.259Z,3.57
2019-02-17T04:36:08.687Z,3.54
2019-02-17T04:37:12.216Z,3.54
2019-02-17T04:38:15.722Z,3.49
2019-02-17T04:39:19.157Z,3.48
2019-02-17T04:40:22.591Z,3.46
2019-02-17T04:41:26.019Z,3.39
2019-02-17T04:42:29.471Z,3.35
2019-02-17T04:43:32.970Z,3.35
2019-02-17T04:44:36.411Z,3.27
2019-02-17T04:45:39.921Z,3.24
2019-02-17T04:46:43.348Z,3.20
2019-02-17T04:47:46.800Z,3.17
2019-02-17T04:48:50.237Z,3.16
2019-02-17T04:49:53.661Z,3.19
2019-02-17T04:50:57.154Z,3.29
2019-02-17T04:52:00.575Z,3.32
2019-02-17T04:53:04.026Z,3.39
2019-02-17T04:54:07.456Z,3.43
2019-02-17T04:55:10.897Z,3.39
2019-02-17T04:56:14.326Z,3.31
2019-02-17T04:57:17.755Z,3.28
2019-02-17T04:58:21.195Z,3.28
2019-02-17T04:59:24.644Z,3.27
2019-02-17T05:00:39.218Z,3.19
2019-02-17T05:01:33.202Z,3.21
2019-02-17T05:02:36.636Z,3.31
2019-02-17T05:03:40.089Z,3.36
2019-02-17T05:04:43.519Z,3.28
2019-02-17T05:05:47.017Z,3.27
2019-02-17T05:06:50.452Z,3.25
2019-02-17T05:07:53.892Z,3.25
2019-02-17T05:08:57.418Z,3.21
2019-02-17T05:10:00.873Z,3.09
2019-02-17T05:11:04.302Z,3.08
2019-02-17T05:12:07.735Z,3.10
2019-02-17T05:13:11.165Z,3.14
2019-02-17T05:14:14.620Z,3.15
2019-02-17T05:15:18.072Z,3.15
2019-02-17T05:16:21.498Z,3.17
2019-02-17T05:17:24.997Z,3.15
2019-02-17T05:18:28.425Z,3.17
2019-02-17T05:19:31.892Z,3.22
2019-02-17T05:20:35.320Z,3.25
2019-02-17T05:21:38.762Z,3.21
2019-02-17T05:22:42.206Z,3.12
2019-02-17T05:23:45.631Z,3.10
2019-02-17T05:24:49.081Z,3.06
2019-02-17T05:25:52.587Z,3.04
2019-02-17T05:26:56.008Z,3.09
2019-02-17T05:27:59.451Z,3.11
2019-02-17T05:29:02.922Z,3.07
2019-02-17T05:30:09.082Z,3.08
2019-02-17T05:31:12.507Z,3.11
2019-02-17T05:32:15.931Z,3.12
2019-02-17T05:33:19.357Z,3.08
2019-02-17T05:34:22.783Z,3.03
2019-02-17T05:35:26.310Z,2.87
2019-02-17T05:36:29.735Z,2.82
2019-02-17T05:37:33.171Z,2.88
2019-02-17T05:38:36.607Z,2.83
2019-02-17T05:39:40.049Z,2.81
2019-02-17T05:40:43.513Z,2.90
2019-02-17T05:41:46.914Z,2.82
2019-02-17T05:42:50.343Z,2.85
2019-02-17T05:43:53.760Z,2.88
2019-02-17T05:44:57.221Z,2.89
2019-02-17T05:46:00.719Z,2.82
2019-02-17T05:47:04.138Z,2.81
2019-02-17T05:48:07.560Z,2.86
2019-02-17T05:49:10.991Z,2.93
2019-02-17T05:50:14.430Z,2.97
2019-02-17T05:51:17.858Z,3.01
2019-02-17T05:52:21.293Z,3.02
2019-02-17T05:53:24.730Z,2.99
2019-02-17T05:54:28.157Z,2.99
2019-02-17T05:55:31.592Z,2.97
2019-02-17T05:56:35.084Z,3.00
2019-02-17T05:57:38.516Z,2.99
2019-02-17T05:58:41.933Z,3.02
2019-02-17T05:59:45.379Z,3.03
2019-02-17T06:00:48.903Z,3.08
2019-02-17T06:01:52.328Z,3.13
2019-02-17T06:02:55.772Z,3.15
2019-02-17T06:03:59.265Z,3.09
2019-02-17T06:05:02.766Z,3.04
2019-02-17T06:06:06.272Z,2.98
2019-02-17T06:07:09.716Z,2.93
2019-02-17T06:08:13.143Z,2.97
2019-02-17T06:09:16.562Z,2.97
2019-02-17T06:10:20.003Z,2.89
2019-02-17T06:11:23.455Z,2.85
2019-02-17T06:12:26.894Z,2.84
2019-02-17T06:13:30.316Z,2.77
2019-02-17T06:14:33.819Z,2.77
2019-02-17T06:15:37.257Z,2.67
2019-02-17T06:16:40.698Z,2.60
2019-02-17T06:17:44.122Z,2.60
2019-02-17T06:18:47.548Z,2.63
2019-02-17T06:19:51.113Z,2.63
2019-02-17T06:20:54.577Z,2.66
2019-02-17T06:21:57.988Z,2.69
2019-02-17T06:23:01.416Z,2.72
2019-02-17T06:24:04.911Z,2.67
2019-02-17T06:25:08.472Z,2.72
2019-02-17T06:26:11.931Z,2.78
2019-02-17T06:27:15.355Z,2.73
2019-02-17T06:28:18.763Z,2.69
2019-02-17T06:29:22.190Z,2.68
2019-02-17T06:30:25.614Z,2.68
2019-02-17T06:31:29.059Z,2.75
2019-02-17T06:32:32.488Z,2.77
2019-02-17T06:33:35.991Z,2.79
2019-02-17T06:34:39.409Z,2.77
2019-02-17T06:35:42.839Z,2.79
2019-02-17T06:36:46.281Z,2.84
2019-02-17T06:37:49.699Z,2.88
2019-02-17T06:38:53.185Z,2.95
2019-02-17T06:39:56.607Z,2.96
2019-02-17T06:41:00.108Z,2.90
2019-02-17T06:42:03.552Z,2.85
2019-02-17T06:43:06.977Z,2.89
2019-02-17T06:44:10.421Z,2.51
2019-02-17T06:45:13.913Z,2.93
2019-02-17T06:46:18.984Z,2.91
2019-02-17T06:47:24.078Z,2.92
2019-02-17T06:48:27.549Z,2.90
2019-02-17T06:49:30.973Z,2.91
2019-02-17T06:50:34.402Z,2.98
2019-02-17T06:51:37.848Z,2.99
2019-02-17T06:52:41.267Z,3.03
2019-02-17T06:53:44.687Z,3.11
2019-02-17T06:54:49.743Z,3.14
2019-02-17T06:55:57.809Z,3.18
2019-02-17T06:57:02.885Z,3.23
2019-02-17T06:58:06.322Z,3.22
2019-02-17T06:59:09.746Z,3.21
2019-02-17T07:00:14.949Z,3.25
2019-02-17T07:01:24.567Z,3.37
2019-02-17T07:02:23.899Z,3.37
2019-02-17T07:03:27.336Z,3.26
2019-02-17T07:04:43.917Z,3.21
2019-02-17T07:05:48.987Z,3.25
2019-02-17T07:06:54.062Z,3.19
2019-02-17T07:07:57.501Z,3.27
2019-02-17T07:09:00.911Z,3.36
2019-02-17T07:10:05.206Z,3.40
2019-02-17T07:11:08.619Z,3.42
2019-02-17T07:12:12.088Z,3.50
2019-02-17T07:13:15.518Z,3.58
2019-02-17T07:14:18.931Z,3.59
2019-02-17T07:15:22.432Z,3.64
2019-02-17T07:16:25.853Z,3.69
2019-02-17T07:17:29.326Z,3.66
2019-02-17T07:18:32.792Z,3.67
2019-02-17T07:19:36.203Z,3.76
2019-02-17T07:20:39.649Z,3.82
2019-02-17T07:21:43.060Z,3.84
2019-02-17T07:22:46.504Z,3.80
2019-02-17T07:23:49.928Z,3.88
2019-02-17T07:24:53.358Z,3.92
2019-02-17T07:25:56.798Z,3.96
2019-02-17T07:27:00.224Z,3.96
2019-02-17T07:28:03.678Z,3.99
2019-02-17T07:29:07.193Z,3.99
2019-02-17T07:30:10.757Z,4.06
2019-02-17T07:31:14.334Z,4.17
2019-02-17T07:32:17.756Z,4.24
2019-02-17T07:33:21.201Z,4.26
2019-02-17T07:34:24.644Z,4.29
2019-02-17T07:35:28.135Z,4.34
2019-02-17T07:36:31.636Z,4.39
2019-02-17T07:37:35.042Z,4.46
2019-02-17T07:38:38.487Z,4.46
2019-02-17T07:39:41.936Z,4.50
2019-02-17T07:40:45.379Z,4.49
2019-02-17T07:41:48.819Z,4.53
2019-02-17T07:42:52.262Z,4.63
2019-02-17T07:43:55.690Z,4.66
2019-02-17T07:44:59.140Z,4.62
2019-02-17T07:46:02.688Z,4.66
2019-02-17T07:47:06.136Z,4.71
2019-02-17T07:48:09.564Z,4.74
2019-02-17T07:49:12.994Z,4.78
2019-02-17T07:50:16.520Z,4.83
2019-02-17T07:51:19.949Z,4.89
2019-02-17T07:52:23.377Z,4.95
2019-02-17T07:53:26.782Z,5.03
2019-02-17T07:54:30.246Z,5.12
2019-02-17T07:55:33.672Z,5.15
2019-02-17T07:56:37.237Z,5.23
2019-02-17T07:57:40.689Z,5.26
2019-02-17T07:58:44.090Z,5.28
2019-02-17T07:59:47.535Z,5.30
2019-02-17T08:00:50.954Z,5.35
2019-02-17T08:01:54.384Z,5.40
2019-02-17T08:02:57.806Z,5.47
2019-02-17T08:04:01.233Z,5.53
2019-02-17T08:05:05.618Z,5.56
2019-02-17T08:06:09.041Z,5.58
2019-02-17T08:07:12.466Z,5.62
2019-02-17T08:08:16.028Z,5.69
2019-02-17T08:09:19.454Z,5.74
2019-02-17T08:10:22.892Z,5.77
2019-02-17T08:11:26.311Z,5.82
2019-02-17T08:12:29.805Z,5.88
2019-02-17T08:13:33.304Z,5.91
2019-02-17T08:14:36.739Z,5.97
2019-02-17T08:15:40.176Z,5.96
2019-02-17T08:16:43.615Z,5.98
2019-02-17T08:17:47.035Z,6.04
2019-02-17T08:18:50.534Z,6.09
2019-02-17T08:19:53.962Z,6.14
2019-02-17T08:20:57.400Z,6.18
2019-02-17T08:22:00.821Z,6.26
2019-02-17T08:23:04.354Z,6.30
2019-02-17T08:24:07.789Z,6.33
2019-02-17T08:25:20.993Z,6.35
2019-02-17T08:26:16.495Z,6.36
2019-02-17T08:27:19.985Z,6.38
2019-02-17T08:28:23.406Z,6.39
2019-02-17T08:29:26.825Z,6.43
2019-02-17T08:30:30.248Z,6.48
2019-02-17T08:31:33.703Z,6.08
2019-02-17T08:32:37.191Z,6.48
2019-02-17T08:33:40.703Z,6.56
2019-02-17T08:34:44.130Z,6.60
2019-02-17T08:35:47.639Z,6.66
2019-02-17T08:36:51.083Z,6.69
2019-02-17T08:37:54.516Z,6.75
2019-02-17T08:38:57.959Z,6.77
2019-02-17T08:40:01.383Z,6.79
2019-02-17T08:41:04.822Z,6.85
2019-02-17T08:42:08.245Z,6.89
2019-02-17T08:43:11.668Z,6.91
2019-02-17T08:44:15.104Z,6.93
2019-02-17T08:45:18.537Z,6.98
2019-02-17T08:46:21.995Z,7.04
2019-02-17T08:47:25.391Z,7.06
2019-02-17T08:48:28.832Z,7.11
2019-02-17T08:49:32.239Z,7.18
2019-02-17T08:50:35.663Z,7.23
2019-02-17T08:51:39.105Z,7.27
2019-02-17T08:52:42.527Z,7.30
2019-02-17T08:53:46.023Z,7.35
2019-02-17T08:54:49.430Z,7.40
2019-02-17T08:55:52.861Z,7.49
2019-02-17T08:56:56.301Z,7.56
2019-02-17T08:57:59.736Z,7.58
2019-02-17T08:59:03.225Z,7.62
2019-02-17T09:00:12.469Z,7.65
2019-02-17T09:01:15.931Z,7.67
2019-02-17T09:02:19.342Z,7.70
2019-02-17T09:03:22.761Z,7.72
2019-02-17T09:04:26.188Z,7.76
2019-02-17T09:05:29.678Z,7.79
2019-02-17T09:06:33.104Z,7.84
2019-02-17T09:07:36.552Z,7.89
2019-02-17T09:08:39.958Z,7.93
2019-02-17T09:09:43.387Z,7.95
2019-02-17T09:10:46.815Z,7.97
2019-02-17T09:11:50.243Z,8.01
2019-02-17T09:12:53.712Z,8.05
2019-02-17T09:13:57.132Z,8.09
2019-02-17T09:15:00.634Z,8.13
2019-02-17T09:16:04.191Z,8.18
2019-02-17T09:17:07.685Z,8.21
2019-02-17T09:18:11.194Z,8.24
2019-02-17T09:19:14.704Z,8.30
2019-02-17T09:20:18.097Z,8.36
2019-02-17T09:21:21.527Z,8.43
2019-02-17T09:22:25.041Z,8.46
2019-02-17T09:23:28.490Z,8.56
2019-02-17T09:24:31.984Z,8.66
2019-02-17T09:25:35.414Z,8.71
2019-02-17T09:26:38.921Z,8.75
2019-02-17T09:27:42.367Z,8.77
2019-02-17T09:28:45.803Z,8.80
2019-02-17T09:29:49.222Z,8.90
2019-02-17T09:30:52.719Z,8.99
2019-02-17T09:31:56.139Z,9.01
2019-02-17T09:32:59.607Z,8.98
2019-02-17T09:34:03.035Z,8.95
2019-02-17T09:35:06.686Z,9.03
2019-02-17T09:36:10.107Z,9.06
2019-02-17T09:37:13.592Z,9.11
2019-02-17T09:38:17.261Z,9.13
2019-02-17T09:39:20.816Z,9.13
2019-02-17T09:40:24.495Z,9.23
2019-02-17T09:41:28.026Z,9.25
2019-02-17T09:42:31.569Z,9.28
2019-02-17T09:43:34.992Z,9.33
2019-02-17T09:44:38.413Z,9.34
2019-02-17T09:45:41.907Z,9.42
2019-02-17T09:46:45.438Z,9.48
2019-02-17T09:47:48.854Z,9.52
2019-02-17T09:48:52.370Z,9.62
2019-02-17T09:49:55.791Z,9.62
2019-02-17T09:50:59.210Z,9.64
2019-02-17T09:52:02.702Z,9.67
2019-02-17T09:53:06.216Z,9.75
2019-02-17T09:54:09.672Z,9.75
2019-02-17T09:55:13.248Z,9.79
2019-02-17T09:56:16.684Z,9.83
2019-02-17T09:57:20.103Z,9.83
2019-02-17T09:58:23.545Z,9.90
2019-02-17T09:59:27.076Z,10.00
2019-02-17T10:00:30.607Z,10.00
2019-02-17T10:01:34.040Z,10.09
2019-02-17T10:02:37.468Z,10.16
2019-02-17T10:03:40.907Z,10.17
2019-02-17T10:04:44.421Z,10.24
2019-02-17T10:05:48.003Z,10.24
2019-02-17T10:06:51.460Z,10.32
2019-02-17T10:07:54.907Z,10.42
2019-02-17T10:08:58.393Z,10.44
2019-02-17T10:10:01.838Z,10.57
2019-02-17T10:11:05.359Z,10.67
2019-02-17T10:12:08.803Z,10.76
2019-02-17T10:13:12.306Z,10.86
2019-02-17T10:14:15.782Z,10.88
2019-02-17T10:15:19.237Z,10.96
2019-02-17T10:16:22.665Z,11.02
2019-02-17T10:17:26.182Z,11.01
2019-02-17T10:18:29.597Z,11.05
2019-02-17T10:19:33.024Z,11.10
2019-02-17T10:20:36.469Z,11.16
2019-02-17T10:21:39.901Z,11.21
2019-02-17T10:22:43.398Z,11.24
2019-02-17T10:23:46.828Z,11.29
2019-02-17T10:24:50.332Z,11.33
2019-02-17T10:25:53.775Z,11.39
2019-02-17T10:26:57.222Z,11.45
2019-02-17T10:28:00.705Z,11.44
2019-02-17T10:29:04.209Z,11.47
2019-02-17T10:30:12.839Z,11.49
2019-02-17T10:31:16.356Z,11.50
2019-02-17T10:32:19.798Z,11.53
2019-02-17T10:33:23.233Z,11.57
2019-02-17T10:34:26.674Z,11.61
2019-02-17T10:35:30.114Z,11.63
2019-02-17T10:36:33.566Z,11.69
2019-02-17T10:37:37.018Z,11.72
2019-02-17T10:38:40.465Z,11.74
2019-02-17T10:39:44.131Z,11.77
2019-02-17T10:40:47.637Z,11.82
2019-02-17T10:41:51.171Z,11.89
2019-02-17T10:42:54.608Z,11.91
2019-02-17T10:43:58.040Z,11.93
2019-02-17T10:45:01.464Z,11.97
2019-02-17T10:46:06.118Z,12.01
2019-02-17T10:47:09.768Z,12.01
2019-02-17T10:48:13.283Z,12.11
2019-02-17T10:49:16.722Z,12.15
2019-02-17T10:50:20.146Z,12.16
2019-02-17T10:51:23.574Z,12.19
2019-02-17T10:52:27.036Z,12.26
2019-02-17T10:53:30.472Z,12.36
2019-02-17T10:54:33.972Z,12.42
2019-02-17T10:55:37.406Z,12.42
2019-02-17T10:56:40.910Z,12.50
2019-02-17T10:57:44.355Z,12.51
2019-02-17T10:58:47.993Z,12.59
2019-02-17T10:59:51.368Z,12.64
2019-02-17T11:00:54.844Z,12.67
2019-02-17T11:01:58.277Z,12.77
2019-02-17T11:03:05.054Z,12.78
2019-02-17T11:04:09.357Z,12.77
2019-02-17T11:05:12.922Z,12.85
2019-02-17T11:06:16.363Z,12.95
2019-02-17T11:07:19.783Z,13.09
2019-02-17T11:08:23.298Z,13.14
2019-02-17T11:09:26.817Z,13.25
2019-02-17T11:10:30.369Z,13.34
2019-02-17T11:11:33.897Z,13.40
2019-02-17T11:12:37.334Z,13.49
2019-02-17T11:13:40.860Z,13.67
2019-02-17T11:14:44.300Z,14.13
2019-02-17T11:15:47.750Z,14.36
2019-02-17T11:16:51.250Z,14.27
2019-02-17T11:17:54.751Z,14.20
2019-02-17T11:18:58.201Z,14.11
2019-02-17T11:20:01.652Z,13.97
2019-02-17T11:21:05.096Z,13.93
2019-02-17T11:22:08.527Z,13.99
2019-02-17T11:23:11.991Z,14.02
2019-02-17T11:24:15.568Z,14.11
2019-02-17T11:25:19.079Z,14.27
2019-02-17T11:26:22.505Z,14.37
2019-02-17T11:27:25.950Z,14.48
2019-02-17T11:28:29.511Z,14.38
2019-02-17T11:29:32.957Z,14.44
2019-02-17T11:30:36.473Z,14.47
2019-02-17T11:31:39.973Z,14.32
2019-02-17T11:32:43.476Z,14.39
2019-02-17T11:33:46.944Z,14.34
2019-02-17T11:34:50.548Z,14.39
2019-02-17T11:35:54.053Z,14.48
2019-02-17T11:36:57.493Z,14.67
2019-02-17T11:38:00.915Z,14.74
2019-02-17T11:39:07.924Z,14.79
2019-02-17T11:40:12.644Z,14.96
2019-02-17T11:41:16.045Z,15.12
2019-02-17T11:42:19.476Z,15.23
2019-02-17T11:43:22.903Z,15.30
2019-02-17T11:44:26.325Z,15.52
2019-02-17T11:45:30.109Z,15.53
2019-02-17T11:46:33.610Z,15.61
2019-02-17T11:47:37.049Z,15.78
2019-02-17T11:48:40.497Z,15.85
2019-02-17T11:49:43.960Z,15.82
2019-02-17T11:50:47.512Z,15.90
2019-02-17T11:51:50.955Z,15.94
2019-02-17T11:52:54.377Z,15.90
2019-02-17T11:53:57.811Z,15.91
2019-02-17T11:55:01.246Z,16.07
2019-02-17T11:56:04.852Z,16.26
2019-02-17T11:57:08.304Z,16.47
2019-02-17T11:58:11.737Z,16.73
2019-02-17T11:59:15.165Z,16.80
2019-02-17T12:00:20.765Z,16.94
2019-02-17T12:01:24.351Z,17.03
2019-02-17T12:02:27.782Z,17.14
2019-02-17T12:03:31.386Z,17.12
2019-02-17T12:04:34.822Z,17.23
2019-02-17T12:05:38.251Z,17.42
2019-02-17T12:06:41.702Z,17.53
2019-02-17T12:07:45.275Z,17.61
2019-02-17T12:08:49.135Z,17.60
2019-02-17T12:09:52.575Z,17.75
2019-02-17T12:10:56.003Z,17.87
2019-02-17T12:11:59.453Z,18.00
2019-02-17T12:13:02.918Z,18.09
2019-02-17T12:14:06.350Z,18.18
2019-02-17T12:15:12.115Z,18.18
2019-02-17T12:16:15.541Z,18.28
2019-02-17T12:17:18.998Z,18.47
2019-02-17T12:18:22.431Z,18.58
2019-02-17T12:19:25.856Z,18.70
2019-02-17T12:20:33.593Z,18.67
2019-02-17T12:21:38.663Z,18.64
2019-02-17T12:22:42.135Z,18.77
2019-02-17T12:23:47.206Z,19.00
2019-02-17T12:24:51.819Z,19.10
2019-02-17T12:25:56.924Z,19.10
2019-02-17T12:27:14.009Z,19.17
2019-02-17T12:28:21.817Z,19.28
2019-02-17T12:29:32.679Z,19.45
2019-02-17T12:30:36.946Z,19.70
2019-02-17T12:31:40.643Z,20.07
2019-02-17T12:32:44.166Z,20.54
2019-02-17T12:33:47.661Z,21.07
2019-02-17T12:34:51.089Z,21.70
2019-02-17T12:35:54.543Z,22.31
2019-02-17T12:36:57.962Z,22.82
2019-02-17T12:38:01.418Z,23.16
2019-02-17T12:39:08.179Z,23.55
2019-02-17T12:40:11.860Z,24.59
2019-02-17T12:41:15.308Z,25.59
2019-02-17T12:42:18.745Z,26.47
2019-02-17T12:43:22.202Z,27.59
2019-02-17T12:44:25.801Z,27.59
2019-02-17T12:45:29.224Z,27.80
2019-02-17T12:46:32.659Z,28.37
2019-02-17T12:47:36.114Z,28.47
2019-02-17T12:48:39.897Z,28.24
2019-02-17T12:49:43.330Z,28.10
2019-02-17T12:50:47.104Z,28.31
2019-02-17T12:51:50.547Z,28.37
2019-02-17T12:52:53.975Z,28.66
2019-02-17T12:53:57.432Z,28.00
2019-02-17T12:55:00.878Z,27.27
2019-02-17T12:56:04.436Z,26.38
2019-02-17T12:57:07.873Z,26.08
2019-02-17T12:58:11.371Z,26.03
2019-02-17T12:59:14.819Z,25.63
2019-02-17T13:00:18.599Z,25.33
2019-02-17T13:01:22.026Z,25.52
2019-02-17T13:02:25.459Z,25.43
2019-02-17T13:03:28.987Z,25.65
2019-02-17T13:04:32.422Z,26.20
2019-02-17T13:05:35.895Z,26.65
2019-02-17T13:06:39.377Z,27.34
2019-02-17T13:07:43.101Z,27.92
2019-02-17T13:08:46.484Z,28.33
2019-02-17T13:09:49.932Z,28.25
2019-02-17T13:10:53.387Z,28.10
2019-02-17T13:11:56.891Z,28.00
2019-02-17T13:13:00.332Z,28.31
2019-02-17T13:14:03.850Z,28.86
2019-02-17T13:15:14.738Z,28.82
2019-02-17T13:16:18.405Z,28.80
2019-02-17T13:17:21.881Z,28.59
2019-02-17T13:18:25.314Z,28.70
2019-02-17T13:19:28.735Z,29.56
2019-02-17T13:20:32.190Z,29.74
2019-02-17T13:21:35.598Z,30.06
2019-02-17T13:22:39.105Z,30.04
2019-02-17T13:23:42.525Z,30.15
2019-02-17T13:24:45.940Z,30.44
2019-02-17T13:25:49.405Z,30.78
2019-02-17T13:26:52.948Z,30.90
2019-02-17T13:27:56.364Z,30.84
2019-02-17T13:29:01.370Z,31.02
2019-02-17T13:30:22.557Z,31.27
2019-02-17T13:31:26.124Z,30.78
2019-02-17T13:32:29.551Z,30.24
2019-02-17T13:33:39.267Z,29.59
2019-02-17T13:34:38.125Z,29.44
2019-02-17T13:35:41.621Z,29.06
2019-02-17T13:36:45.078Z,28.63
2019-02-17T13:37:48.529Z,28.32
2019-02-17T13:38:51.965Z,28.26
2019-02-17T13:39:55.489Z,27.96
2019-02-17T13:40:58.929Z,27.35
2019-02-17T13:42:02.387Z,27.35
2019-02-17T13:43:05.919Z,27.18
2019-02-17T13:44:09.387Z,27.13
2019-02-17T13:45:14.225Z,26.80
2019-02-17T13:46:17.657Z,26.80
2019-02-17T13:47:21.102Z,26.70
2019-02-17T13:48:24.559Z,26.28
2019-02-17T13:49:28.056Z,26.28
2019-02-17T13:50:31.498Z,26.24
2019-02-17T13:51:34.931Z,26.24
2019-02-17T13:52:38.443Z,26.16
2019-02-17T13:53:41.875Z,25.95
2019-02-17T13:54:45.381Z,25.95
2019-02-17T13:55:48.882Z,25.70
2019-02-17T13:56:52.321Z,25.50
2019-02-17T13:57:55.832Z,25.44
2019-02-17T13:58:59.268Z,25.35